Flight Track Log - Related Links

Times and Time Zones

All times are in EDT time to prevent confusion due to time zone crossing. See the DAL3799 flight status page for this flight to view local times or setup timezone preferences in your user account.

Time Position Orientation Groundspeed Altitude Reporting Facility
EDT Latitude Longitude Course Direction KTS MPH feet Rate Location/Type
Sat 04:29:13 PM 44.9000 -93.2500 254° West 163 188 2,600  Level Minneapolis TRACON
Sat 04:29:56 PM 44.8894 -93.3019 254° West 195 224 4,100 2,229 Climbing Minneapolis Center
Sat 04:30:58 PM 44.8478 -93.3689 229° Southwest 268 308 6,500 2,710 Climbing Minneapolis Center
Sat 04:32:00 PM 44.7822 -93.3169 151° Southeast 294 338 9,700 2,613 Climbing Minneapolis Center
Sat 04:33:02 PM 44.7161 -93.1878 126° Southeast 340 391 11,900 2,000 Climbing Minneapolis Center
Sat 04:34:03 PM 44.6633 -93.0819 125° Southeast 366 421 13,800 1,805 Climbing Minneapolis Center
Sat 04:35:05 PM 44.6008 -92.9589 125° Southeast 385 443 15,600 1,694 Climbing Minneapolis Center
Sat 04:36:07 PM 44.5358 -92.8311 125° Southeast 400 460 17,300 1,452 Climbing Minneapolis Center
Sat 04:37:09 PM 44.4542 -92.6725 126° Southeast 416 479 18,600 1,258 Climbing Minneapolis Center
Sat 04:38:11 PM 44.3819 -92.5325 126° Southeast 436 502 19,900 1,220 Climbing Minneapolis Center
Sat 04:39:12 PM 44.3094 -92.3864 125° Southeast 455 524 21,100 1,073 Climbing Minneapolis Center
Sat 04:40:14 PM 44.2433 -92.2281 120° Southeast 470 541 22,100 1,065 Climbing Minneapolis Center
Sat 04:41:16 PM 44.1744 -92.0656 121° Southeast 485 558 23,300 1,016 Climbing Minneapolis Center
Sat 04:42:18 PM 44.1022 -91.9050 122° Southeast 490 564 24,200 976 Climbing Minneapolis Center
Sat 04:43:19 PM 44.0156 -91.7056 121° Southeast 499 574 25,300 976 Climbing Minneapolis Center
Sat 04:44:21 PM 43.9494 -91.5556 121° Southeast 506 582 26,200 871 Climbing Minneapolis Center
Sat 04:45:23 PM 43.8617 -91.3975 128° Southeast 518 596 27,100 677 Climbing Minneapolis Center
Sat 04:46:25 PM 43.7608 -91.2544 134° Southeast 521 600 27,600 683 Climbing Minneapolis Center
Sat 04:47:26 PM 43.6350 -91.0794 135° Southeast 528 608 28,500 780 Climbing Minneapolis Center
Sat 04:48:05 PM 43.5725 -90.9956 136° Southeast 532 612 28,900 660 Climbing Chicago Center
Sat 04:49:06 PM 43.4686 -90.8514 135° Southeast 532 612 29,600 683 Climbing Chicago Center
Sat 04:50:08 PM 43.3642 -90.7072 135° Southeast 533 613 30,300 677 Climbing Chicago Center
Sat 04:51:10 PM 43.2606 -90.5647 135° Southeast 531 611 31,000 677 Climbing Chicago Center
Sat 04:52:12 PM 43.1564 -90.4225 135° Southeast 530 610 31,700 683 Climbing Chicago Center
Sat 04:53:13 PM 43.0314 -90.2558 136° Southeast 524 603 32,400 537 Climbing Chicago Center
Sat 04:54:15 PM 42.9300 -90.1181 135° Southeast 518 596 32,800 290 Climbing Chicago Center
Sat 04:55:17 PM 42.8258 -89.9783 135° Southeast 525 604 33,000 97 Climbing Chicago Center
Sat 04:56:19 PM 42.7214 -89.8400 136° Southeast 532 612 33,000  Level Chicago Center
Sat 04:57:20 PM 42.6153 -89.7003 136° Southeast 536 617 33,000  Level Chicago Center
Sat 04:58:22 PM 42.4856 -89.5294 136° Southeast 543 625 33,000  Level Chicago Center
Sat 04:59:24 PM 42.3778 -89.3883 136° Southeast 543 625 33,000  Level Chicago Center
Sat 05:00:26 PM 42.2681 -89.2478 137° Southeast 546 628 33,000  Level Chicago Center
Sat 05:01:27 PM 42.1608 -89.1072 136° Southeast 541 623 33,000  Level Chicago Center
Sat 05:02:29 PM 42.0567 -88.9722 136° Southeast 543 625 33,000  Level Chicago Center
Sat 05:03:31 PM 41.9272 -88.8036 136° Southeast 543 625 33,000  Level Chicago Center
Sat 05:04:33 PM 41.8197 -88.6633 136° Southeast 542 624 33,000  Level Chicago Center
Sat 05:05:35 PM 41.7125 -88.5261 136° Southeast 537 618 33,000 -49 Level Chicago Center
Sat 05:06:36 PM 41.6081 -88.3906 136° Southeast 529 609 32,900 -439 Descending Chicago Center
Sat 05:07:38 PM 41.5025 -88.2564 136° Southeast 529 609 32,100 -823 Descending Chicago Center
Sat 05:08:40 PM 41.3828 -88.1031 136° Southeast 539 620 31,200 -823 Descending Chicago Center
Sat 05:09:42 PM 41.2758 -87.9681 136° Southeast 531 611 30,400 -774 Descending Chicago Center
Sat 05:10:44 PM 41.1708 -87.8353 136° Southeast 527 606 29,600 -677 Descending Chicago Center
Sat 05:11:46 PM 41.0672 -87.7047 136° Southeast 521 600 29,000 -293 Descending Chicago Center
Sat 05:12:47 PM 40.9639 -87.5731 136° Southeast 519 597 29,000  Level Chicago Center
Sat 05:13:49 PM 40.8394 -87.4189 137° Southeast 516 594 29,000  Level Chicago Center
Sat 05:14:51 PM 40.7347 -87.2908 137° Southeast 517 595 29,000  Level Chicago Center
Sat 05:15:53 PM 40.6231 -87.1736 141° Southeast 519 597 29,000 -48 Level Chicago Center
Sat 05:16:55 PM 40.5139 -87.0639 143° Southeast 516 594 28,900 -581 Descending Chicago Center
Sat 05:17:57 PM 40.4033 -86.9525 142° Southeast 507 583 27,800 -1,258 Descending Chicago Center
Sat 05:18:59 PM 40.2825 -86.8317 143° Southeast 461 531 26,300 -1,366 Descending Chicago Center
Sat 05:20:00 PM 40.1897 -86.7389 143° Southeast 430 495 25,000 -1,317 Descending Chicago Center
Sat 05:21:02 PM 40.0947 -86.6461 143° Southeast 427 491 23,600 -1,355 Descending Chicago Center
Sat 05:22:04 PM 40.0019 -86.5550 143° Southeast 423 487 22,200 -1,355 Descending Chicago Center
Sat 05:23:06 PM 39.9150 -86.4681 143° Southeast 404 465 20,800 -1,355 Descending Chicago Center
Sat 05:24:08 PM 39.8278 -86.3803 142° Southeast 399 459 19,400 -1,448 Descending Chicago Center
Sat 05:25:02 PM 39.7667 -86.2333 118° Southeast 395 455 18,000 -1,364 Descending Indianapolis TRACON
Sat 05:25:36 PM 39.7564 -86.1922 108° East 396 456 17,400 -1,263 Descending Indianapolis Center
Sat 05:26:37 PM 39.7125 -86.0625 114° Southeast 393 452 16,000 -1,512 Descending Indianapolis Center
Sat 05:27:39 PM 39.6631 -85.9156 114° Southeast 373 429 14,300 -1,122 Descending Indianapolis Center
Sat 05:28:40 PM 39.6217 -85.7936 114° Southeast 372 428 13,700 -878 Descending Indianapolis Center
Sat 05:29:42 PM 39.5808 -85.6731 114° Southeast 368 423 12,500 -1,122 Descending Indianapolis Center
Sat 05:30:43 PM 39.5400 -85.5547 114° Southeast 360 414 11,400 -732 Descending Indianapolis Center
Sat 05:31:45 PM 39.4958 -85.4428 117° Southeast 353 406 11,000 -195 Descending Indianapolis Center
Sat 05:32:46 PM 39.4400 -85.3447 126° Southeast 341 392 11,000  Level Indianapolis Center
Sat 05:33:48 PM 39.3850 -85.2442 125° Southeast 341 392 11,000  Level Indianapolis Center
Sat 05:34:49 PM 39.3200 -85.1264 125° Southeast 338 389 11,000  Level Indianapolis Center
Sat 05:35:51 PM 39.2656 -85.0294 126° Southeast 336 387 11,000  Level Indianapolis Center
Sat 05:36:52 PM 39.2114 -84.9322 126° Southeast 335 386 11,000 -390 Level Indianapolis Center
Sat 05:37:54 PM 39.1606 -84.8397 125° Southeast 331 381 10,200 -1,415 Descending Indianapolis Center
Sat 05:38:55 PM 39.1011 -84.7808 142° Southeast 297 342 8,100 -1,561 Descending Indianapolis Center
Sat 05:39:57 PM 39.0225 -84.7797 179° South 285 328 7,000 -976 Descending Indianapolis Center
Sat 05:40:58 PM 38.9494 -84.7803 180° South 271 312 6,100 -976 Descending Indianapolis Center
Sat 05:42:00 PM 38.8692 -84.7814 181° South 258 297 5,000 -1,500 Descending Indianapolis Center
Sat 05:43:22 PM 38.9500 -84.6667 48° Northeast 195 224 2,500 -1,394 Descending Cincinnati TRACON
Sat 05:44:22 PM 39.0000 -84.6667 360° North 126 145 1,700 -744 Descending Cincinnati TRACON
Sat 05:45:23 PM 39.0333 -84.6667 360° North 116 133 1,000 -689 Descending Cincinnati TRACON

Login

Don't have an account? Register now (free) for customized features, flight alerts, and more!